Time;durP1;ratioP1;P1;durP2;ratioP2;P2;SDS_P1;SDS_P2;PMS_P1;PMS_P2;Temp;Humidity;BMP_temperature;BMP_pressure;BME280_temperature;BME280_humidity;BME280_pressure;Samples;Min_cycle;Max_cycle;Signal;HPM_P1;HPM_P2
2022/01/19 00:00:09;;;;;;;13.07;8.55;;;3.00;7.60;;;;;;5106827;27;20136;-65
2022/01/19 00:02:37;;;;;;;12.18;8.13;;;2.90;7.60;;;;;;5105278;27;20047;-65
2022/01/19 00:05:06;;;;;;;13.75;8.10;;;2.90;7.60;;;;;;5105169;28;20127;-65
2022/01/19 00:07:36;;;;;;;13.77;8.15;;;2.90;7.70;;;;;;5103800;28;20084;-64
2022/01/19 00:10:09;;;;;;;18.13;8.98;;;2.90;8.10;;;;;;5104033;27;20126;-65
2022/01/19 00:12:38;;;;;;;15.15;8.32;;;2.80;8.10;;;;;;5107192;28;20089;-64
2022/01/19 00:15:08;;;;;;;16.27;8.85;;;2.70;8.60;;;;;;5104503;28;20195;-65
2022/01/19 00:17:36;;;;;;;14.98;8.50;;;2.60;9.00;;;;;;5106279;27;20142;-65
2022/01/19 00:20:05;;;;;;;12.73;8.20;;;2.60;9.50;;;;;;5110469;27;20208;-65
2022/01/19 00:22:34;;;;;;;14.27;9.02;;;2.60;9.70;;;;;;5106448;28;20067;-65
2022/01/19 00:25:02;;;;;;;12.32;8.13;;;2.50;9.20;;;;;;5100818;28;20499;-64
2022/01/19 00:27:30;;;;;;;15.88;9.18;;;2.50;10.20;;;;;;5106452;27;20076;-65
2022/01/19 00:29:58;;;;;;;15.48;8.70;;;2.40;10.90;;;;;;5106847;28;20127;-65
2022/01/19 00:32:27;;;;;;;13.50;8.80;;;2.50;11.00;;;;;;5107184;28;20498;-64
2022/01/19 00:34:55;;;;;;;12.90;8.48;;;2.40;10.70;;;;;;5105179;27;20131;-65
2022/01/19 00:37:23;;;;;;;11.90;9.02;;;2.30;11.30;;;;;;5106363;28;20044;-65
2022/01/19 00:39:53;;;;;;;13.40;8.98;;;2.20;11.60;;;;;;5107334;27;20039;-63
2022/01/19 00:42:21;;;;;;;16.25;9.10;;;2.20;12.40;;;;;;5104967;28;20098;-65
2022/01/19 00:44:51;;;;;;;15.85;9.40;;;2.10;12.60;;;;;;5103927;28;20482;-65
2022/01/19 00:47:19;;;;;;;18.20;9.38;;;2.00;13.40;;;;;;5104890;28;20047;-65
2022/01/19 00:49:47;;;;;;;14.30;9.55;;;2.00;14.10;;;;;;5108277;27;20528;-65
2022/01/19 00:52:15;;;;;;;21.13;10.25;;;1.90;14.20;;;;;;5105663;28;20058;-65
2022/01/19 00:54:44;;;;;;;13.70;9.02;;;1.80;14.90;;;;;;5103230;28;20039;-66
2022/01/19 00:57:13;;;;;;;15.85;8.88;;;1.80;15.50;;;;;;5103728;28;20493;-66
2022/01/19 00:59:42;;;;;;;17.90;9.23;;;1.80;15.60;;;;;;5102828;28;20126;-64
2022/01/19 01:02:10;;;;;;;14.90;8.68;;;1.70;15.90;;;;;;5106847;27;20151;-64
2022/01/19 01:04:38;;;;;;;14.80;9.18;;;1.60;16.60;;;;;;5101802;28;20048;-64
2022/01/19 01:07:06;;;;;;;17.48;10.13;;;1.60;17.40;;;;;;5104296;28;20071;-65
2022/01/19 01:09:34;;;;;;;14.82;10.02;;;1.60;17.50;;;;;;5107232;27;20101;-64
2022/01/19 01:12:10;;;;;;;19.63;10.13;;;1.50;17.40;;;;;;5108215;28;20652;-64
2022/01/19 01:20:13;;;;;;;15.98;10.77;;;1.30;19.50;;;;;;5106797;27;20056;-65
2022/01/19 01:22:42;;;;;;;16.58;10.68;;;1.30;19.70;;;;;;5104745;28;21174;-65
2022/01/19 01:25:10;;;;;;;21.52;11.10;;;1.30;20.40;;;;;;5100877;28;20043;-65
2022/01/19 01:27:38;;;;;;;14.85;10.30;;;1.30;20.50;;;;;;5106115;28;20117;-65
2022/01/19 01:30:10;;;;;;;20.45;11.32;;;1.20;20.70;;;;;;5103360;28;20494;-65
2022/01/19 01:32:38;;;;;;;22.65;11.32;;;1.10;20.60;;;;;;5106163;28;20086;-65
2022/01/19 01:35:07;;;;;;;18.13;10.25;;;1.20;21.30;;;;;;5103048;28;20039;-65
2022/01/19 01:37:35;;;;;;;20.88;11.80;;;1.10;21.90;;;;;;5085141;28;20130;-65
2022/01/19 01:40:04;;;;;;;20.55;11.15;;;1.10;22.00;;;;;;5105661;28;20040;-65
2022/01/19 01:42:33;;;;;;;20.80;12.45;;;1.10;22.30;;;;;;5107743;28;20059;-65
2022/01/19 01:45:02;;;;;;;18.70;10.48;;;1.10;22.60;;;;;;5101256;28;20392;-65
2022/01/19 01:47:34;;;;;;;18.63;11.40;;;1.10;23.00;;;;;;5102808;27;20059;-65
2022/01/19 01:55:33;;;;;;;17.48;10.82;;;1.10;23.30;;;;;;5100453;27;20399;-65
2022/01/19 01:58:02;;;;;;;18.40;11.23;;;1.10;23.70;;;;;;5101423;28;20051;-65
2022/01/19 02:00:30;;;;;;;19.17;11.52;;;1.10;24.00;;;;;;5104419;28;20525;-65
2022/01/19 02:02:59;;;;;;;22.02;12.73;;;1.10;23.90;;;;;;5105367;28;20051;-65
2022/01/19 02:05:28;;;;;;;20.10;11.63;;;1.00;23.90;;;;;;5097242;28;20100;-66
2022/01/19 02:08:07;;;;;;;19.05;11.20;;;1.00;23.90;;;;;;5105517;28;20097;-65
2022/01/19 02:10:42;;;;;;;20.05;11.15;;;1.00;23.90;;;;;;5101160;28;20502;-65
2022/01/19 02:16:16;;;;;;;18.13;12.23;;;0.90;24.60;;;;;;5072939;28;20040;-65
2022/01/19 02:21:46;;;;;;;23.80;13.30;;;1.00;24.80;;;;;;5106733;28;20040;-65
2022/01/19 02:24:17;;;;;;;25.27;12.43;;;0.90;24.50;;;;;;5102544;28;20101;-65
2022/01/19 02:27:03;;;;;;;23.08;11.68;;;0.80;24.60;;;;;;5102961;28;20130;-65
2022/01/19 02:40:37;;;;;;;24.80;12.68;;;0.80;25.40;;;;;;5107795;28;20081;-65
2022/01/19 02:43:19;;;;;;;22.27;13.75;;;0.70;25.40;;;;;;5111693;27;20482;-65
2022/01/19 02:51:21;;;;;;;22.52;13.20;;;0.70;25.40;;;;;;5111093;27;20102;-65
2022/01/19 02:53:50;;;;;;;25.33;13.13;;;0.70;25.50;;;;;;5107859;28;20659;-65
2022/01/19 02:56:24;;;;;;;20.58;12.57;;;0.60;25.50;;;;;;5104734;28;20050;-65
2022/01/19 02:58:58;;;;;;;26.95;13.00;;;0.60;25.70;;;;;;5109917;27;20744;-66
2022/01/19 03:09:44;;;;;;;22.63;12.07;;;0.40;26.90;;;;;;5108271;28;20063;-64
2022/01/19 03:12:12;;;;;;;20.80;12.30;;;0.30;27.60;;;;;;5109952;28;20055;-65
2022/01/19 03:14:40;;;;;;;19.75;12.13;;;0.30;28.10;;;;;;5106467;28;20517;-65
2022/01/19 03:17:11;;;;;;;22.38;12.48;;;0.20;28.60;;;;;;5106523;27;20048;-64
2022/01/19 03:19:39;;;;;;;25.48;12.32;;;0.30;29.70;;;;;;5106922;28;20225;-64
2022/01/19 03:22:07;;;;;;;23.10;13.35;;;0.30;29.80;;;;;;5108474;28;20181;-65
2022/01/19 03:24:38;;;;;;;22.20;13.80;;;0.50;30.10;;;;;;5106839;28;20083;-65
2022/01/19 03:27:08;;;;;;;24.25;13.80;;;0.60;29.30;;;;;;5107263;28;20554;-65
2022/01/19 03:29:36;;;;;;;24.48;12.73;;;0.60;29.50;;;;;;5106154;28;20142;-64
2022/01/19 03:32:05;;;;;;;24.15;13.60;;;0.60;28.70;;;;;;5107890;28;20040;-65
2022/01/19 03:34:33;;;;;;;21.98;13.60;;;0.50;27.90;;;;;;5102390;28;20051;-65
2022/01/19 03:37:02;;;;;;;27.95;13.18;;;0.40;28.40;;;;;;5099386;27;20133;-65
2022/01/19 03:39:30;;;;;;;18.90;12.00;;;0.30;28.60;;;;;;5102999;28;20071;-66
2022/01/19 03:41:58;;;;;;;20.95;13.38;;;0.20;28.80;;;;;;5103958;28;20050;-64
2022/01/19 03:44:27;;;;;;;23.27;13.23;;;0.20;30.00;;;;;;5100447;28;20050;-65
2022/01/19 03:46:57;;;;;;;21.27;13.77;;;0.30;30.00;;;;;;5106784;28;20043;-65
2022/01/19 03:49:27;;;;;;;25.60;13.88;;;0.10;28.80;;;;;;5108254;27;20101;-65
2022/01/19 03:51:58;;;;;;;25.02;13.18;;;0.10;29.90;;;;;;5107178;27;20122;-65
2022/01/19 03:54:27;;;;;;;25.42;14.23;;;0.10;29.90;;;;;;5106253;28;20079;-64
2022/01/19 03:56:56;;;;;;;21.15;12.80;;;0.00;29.90;;;;;;5103522;28;20556;-64
2022/01/19 03:59:24;;;;;;;26.85;13.35;;;0.10;30.00;;;;;;5105249;27;20078;-64
2022/01/19 04:01:54;;;;;;;26.20;14.55;;;0.00;30.10;;;;;;5091521;28;20051;-64
2022/01/19 04:04:36;;;;;;;25.15;13.20;;;0.00;30.40;;;;;;5104117;27;20131;-65
2022/01/19 04:07:23;;;;;;;22.27;13.25;;;0.00;31.10;;;;;;5106563;28;20520;-64
2022/01/19 04:09:51;;;;;;;22.48;13.00;;;-0.10;31.60;;;;;;5106613;27;20179;-65
2022/01/19 04:12:30;;;;;;;25.10;13.40;;;0.00;31.90;;;;;;5107698;28;20545;-65
2022/01/19 04:14:58;;;;;;;26.98;14.48;;;-0.20;31.40;;;;;;5102987;28;20082;-66
2022/01/19 04:17:27;;;;;;;22.23;13.45;;;-0.20;33.70;;;;;;5105990;28;20166;-64
2022/01/19 04:19:56;;;;;;;24.23;13.18;;;-0.10;33.80;;;;;;5107001;28;20040;-64
2022/01/19 04:22:24;;;;;;;26.95;14.25;;;-0.10;33.60;;;;;;5107265;28;20064;-64
2022/01/19 04:24:53;;;;;;;24.63;13.75;;;-0.10;34.20;;;;;;5102936;28;20070;-64
2022/01/19 04:27:33;;;;;;;28.45;14.48;;;-0.10;32.90;;;;;;5105286;28;20047;-65
2022/01/19 04:30:08;;;;;;;22.85;14.52;;;-0.10;33.20;;;;;;5106557;28;20071;-64
2022/01/19 04:32:46;;;;;;;23.83;13.68;;;-0.10;32.80;;;;;;5107129;28;20044;-66
2022/01/19 04:35:20;;;;;;;28.05;14.63;;;-0.10;33.30;;;;;;5099930;28;20043;-64
2022/01/19 04:44:05;;;;;;;27.30;14.70;;;-0.10;33.80;;;;;;5106250;28;20105;-65
2022/01/19 05:03:29;;;;;;;28.80;16.17;;;-0.20;32.00;;;;;;5103650;28;20047;-65
2022/01/19 05:06:03;;;;;;;30.65;15.95;;;-0.20;33.00;;;;;;5103636;27;20048;-65
2022/01/19 05:14:01;;;;;;;28.83;15.88;;;-0.30;33.70;;;;;;5106558;28;20018;-64
2022/01/19 05:16:29;;;;;;;42.88;15.63;;;-0.30;34.30;;;;;;5102059;28;20047;-65
2022/01/19 05:18:57;;;;;;;31.25;16.83;;;-0.40;34.30;;;;;;5106230;28;20039;-65
2022/01/19 05:21:27;;;;;;;33.60;18.38;;;-0.30;35.00;;;;;;5105487;28;20126;-65
2022/01/19 05:23:55;;;;;;;29.90;17.05;;;-0.30;35.00;;;;;;5105028;28;20075;-65
2022/01/19 05:26:23;;;;;;;33.40;17.67;;;-0.30;35.00;;;;;;5102309;28;20101;-65
2022/01/19 05:28:51;;;;;;;31.85;16.05;;;-0.30;34.60;;;;;;5105620;28;20105;-65
2022/01/19 05:31:18;;;;;;;31.90;17.10;;;-0.40;34.80;;;;;;5105193;28;20082;-65
2022/01/19 05:33:46;;;;;;;32.78;17.00;;;-0.30;35.50;;;;;;5103891;28;20051;-65
2022/01/19 05:36:14;;;;;;;35.85;18.58;;;-0.30;35.20;;;;;;5104146;28;20138;-65
2022/01/19 05:38:45;;;;;;;31.45;16.65;;;-0.30;35.00;;;;;;5102535;28;20047;-65
2022/01/19 05:41:15;;;;;;;32.78;17.00;;;-0.30;34.90;;;;;;5106129;27;20043;-65
2022/01/19 05:43:42;;;;;;;30.45;16.85;;;-0.30;35.00;;;;;;5104956;28;20047;-65
2022/01/19 05:46:10;;;;;;;30.95;17.70;;;-0.40;34.40;;;;;;5102144;27;20061;-64
2022/01/19 05:48:39;;;;;;;33.03;17.85;;;-0.30;35.00;;;;;;5107871;28;20082;-65
2022/01/19 05:51:07;;;;;;;29.85;15.80;;;-0.30;35.10;;;;;;5107604;27;20042;-65
2022/01/19 05:53:35;;;;;;;31.42;17.25;;;-0.30;35.30;;;;;;5106008;28;20043;-65
2022/01/19 05:56:05;;;;;;;30.25;16.80;;;-0.40;35.10;;;;;;5100834;28;20071;-65
2022/01/19 05:58:34;;;;;;;32.08;17.30;;;-0.40;36.20;;;;;;5105734;28;20464;-65
2022/01/19 06:01:03;;;;;;;30.40;16.08;;;-0.40;35.80;;;;;;5102504;28;20042;-65
2022/01/19 06:03:35;;;;;;;31.50;17.67;;;-0.30;35.90;;;;;;5103938;28;20051;-65
2022/01/19 06:06:03;;;;;;;32.22;17.27;;;-0.20;36.10;;;;;;5103251;28;20127;-64
2022/01/19 06:08:41;;;;;;;30.30;16.25;;;-0.20;35.50;;;;;;5103649;28;20116;-65
2022/01/19 06:11:12;;;;;;;36.25;18.65;;;-0.20;35.00;;;;;;5104743;28;20055;-65
2022/01/19 06:13:40;;;;;;;30.67;17.33;;;-0.20;35.00;;;;;;5104222;28;20499;-65
2022/01/19 06:16:08;;;;;;;30.73;17.55;;;-0.30;34.70;;;;;;5102003;28;20047;-64
2022/01/19 06:18:40;;;;;;;32.40;17.10;;;-0.30;34.40;;;;;;5105090;28;20035;-64
2022/01/19 06:21:09;;;;;;;31.05;17.40;;;-0.30;34.40;;;;;;5105245;28;20048;-65
2022/01/19 06:23:37;;;;;;;33.28;17.80;;;-0.30;33.90;;;;;;5102300;28;20047;-64
2022/01/19 06:26:05;;;;;;;28.15;15.65;;;-0.40;34.00;;;;;;5082752;28;20051;-65
2022/01/19 06:28:34;;;;;;;33.00;16.33;;;-0.40;33.90;;;;;;5105638;28;20510;-64
2022/01/19 06:31:02;;;;;;;29.05;16.10;;;-0.40;33.70;;;;;;5102632;28;20063;-65
2022/01/19 06:33:30;;;;;;;32.15;16.55;;;-0.40;33.60;;;;;;5104064;28;20048;-65
2022/01/19 06:35:58;;;;;;;33.30;17.35;;;-0.40;33.60;;;;;;5101058;28;20067;-65
2022/01/19 06:38:26;;;;;;;32.03;17.73;;;-0.40;33.60;;;;;;5106129;28;20118;-64
2022/01/19 06:40:54;;;;;;;32.55;18.02;;;-0.40;33.60;;;;;;5106185;28;20051;-64
2022/01/19 06:43:22;;;;;;;30.95;17.08;;;-0.40;33.60;;;;;;5103670;28;20052;-64
2022/01/19 06:45:52;;;;;;;30.58;16.67;;;-0.40;33.60;;;;;;5100724;28;20059;-63
2022/01/19 06:48:20;;;;;;;28.83;17.20;;;-0.40;33.60;;;;;;5104120;28;20051;-64
2022/01/19 06:50:48;;;;;;;32.33;17.70;;;-0.40;33.90;;;;;;5104463;28;20086;-65
2022/01/19 06:53:16;;;;;;;32.22;16.42;;;-0.50;33.70;;;;;;5104723;28;20047;-65
2022/01/19 06:55:44;;;;;;;32.38;17.67;;;-0.40;34.10;;;;;;5098174;28;20673;-64
2022/01/19 06:58:12;;;;;;;37.50;17.38;;;-0.50;34.10;;;;;;5099227;28;20048;-65
2022/01/19 07:00:41;;;;;;;31.75;15.77;;;-0.30;34.30;;;;;;5103963;28;20555;-65
2022/01/19 07:03:10;;;;;;;35.13;18.45;;;-0.30;33.70;;;;;;5104270;28;20448;-64
2022/01/19 07:05:40;;;;;;;32.42;18.15;;;-0.20;33.70;;;;;;5099390;28;20086;-65
2022/01/19 07:08:08;;;;;;;30.05;17.08;;;-0.30;33.30;;;;;;5104757;28;20039;-64
2022/01/19 07:10:36;;;;;;;34.75;18.95;;;-0.40;33.00;;;;;;5105123;28;20035;-64
2022/01/19 07:13:05;;;;;;;32.70;17.52;;;-0.40;33.30;;;;;;5106580;28;20408;-66
2022/01/19 07:15:33;;;;;;;37.20;18.63;;;-0.40;33.60;;;;;;5102382;28;20146;-64
2022/01/19 07:18:01;;;;;;;40.03;18.50;;;-0.40;33.60;;;;;;5107732;28;20152;-65
2022/01/19 07:20:34;;;;;;;39.80;17.35;;;-0.30;33.70;;;;;;5109836;28;20483;-64
2022/01/19 07:23:03;;;;;;;31.80;17.40;;;-0.30;33.60;;;;;;5105354;28;20104;-64
2022/01/19 07:25:31;;;;;;;31.77;16.70;;;-0.30;33.40;;;;;;5102615;28;20042;-64
2022/01/19 07:27:59;;;;;;;37.75;17.88;;;-0.30;33.50;;;;;;5105560;28;20094;-64
2022/01/19 07:30:28;;;;;;;31.30;17.17;;;-0.30;33.20;;;;;;5107073;28;20111;-65
2022/01/19 07:32:56;;;;;;;33.15;16.92;;;-0.30;33.60;;;;;;5110491;27;20054;-65
2022/01/19 07:35:24;;;;;;;35.13;16.75;;;-0.30;33.40;;;;;;5102375;27;21427;-65
2022/01/19 07:37:53;;;;;;;30.40;16.75;;;-0.20;33.60;;;;;;5107418;27;20078;-65
2022/01/19 07:40:22;;;;;;;32.47;17.85;;;-0.30;32.90;;;;;;5109049;28;20063;-65
2022/01/19 07:42:51;;;;;;;28.40;16.38;;;-0.20;33.30;;;;;;5108207;28;20097;-65
2022/01/19 07:45:19;;;;;;;33.95;17.30;;;-0.10;32.90;;;;;;5099126;28;20083;-65
2022/01/19 07:47:47;;;;;;;31.90;16.55;;;-0.20;32.20;;;;;;5105102;28;20491;-64
2022/01/19 07:50:16;;;;;;;33.13;17.15;;;-0.10;32.40;;;;;;5108804;28;20124;-64
2022/01/19 07:52:44;;;;;;;28.15;16.40;;;-0.10;31.30;;;;;;5107040;27;20055;-65
2022/01/19 07:55:13;;;;;;;26.05;16.48;;;0.00;31.80;;;;;;5103020;28;20057;-65
2022/01/19 07:57:45;;;;;;;33.80;15.68;;;0.10;31.10;;;;;;5106336;28;20105;-65
2022/01/19 08:00:15;;;;;;;36.17;18.00;;;0.10;29.90;;;;;;5101789;27;20043;-65
2022/01/19 08:02:43;;;;;;;33.30;17.27;;;0.20;30.00;;;;;;5109315;28;20055;-66
2022/01/19 08:05:12;;;;;;;34.25;16.35;;;0.10;29.50;;;;;;5084423;28;20512;-65
2022/01/19 08:07:40;;;;;;;33.10;16.90;;;0.20;29.60;;;;;;5105870;28;20137;-64
2022/01/19 08:10:10;;;;;;;28.77;16.13;;;0.30;28.20;;;;;;5106652;28;20109;-65
2022/01/19 08:12:40;;;;;;;38.50;17.30;;;0.30;27.90;;;;;;5108293;28;20043;-65
2022/01/19 08:15:09;;;;;;;35.13;17.48;;;0.30;27.70;;;;;;5102849;27;20047;-66
2022/01/19 08:17:37;;;;;;;37.70;17.98;;;0.30;27.50;;;;;;5107898;28;20094;-64
2022/01/19 08:20:06;;;;;;;37.15;17.25;;;0.40;27.50;;;;;;5090494;28;20130;-64
2022/01/19 08:22:34;;;;;;;29.80;16.00;;;0.40;27.20;;;;;;5106229;28;20503;-64
2022/01/19 08:25:03;;;;;;;31.65;16.75;;;0.50;26.90;;;;;;5103052;27;20075;-64
2022/01/19 08:27:30;;;;;;;26.88;15.82;;;0.50;26.50;;;;;;5105684;28;20135;-65
2022/01/19 08:30:00;;;;;;;31.45;16.02;;;0.60;26.50;;;;;;5106485;28;20123;-65
2022/01/19 08:32:28;;;;;;;29.42;16.80;;;0.70;26.10;;;;;;5105445;28;20052;-65
2022/01/19 08:35:00;;;;;;;28.65;15.25;;;0.70;24.80;;;;;;5098459;28;20221;-66
2022/01/19 08:37:28;;;;;;;29.55;15.98;;;0.70;24.80;;;;;;5105852;27;20130;-64
2022/01/19 08:39:56;;;;;;;28.83;15.70;;;0.80;25.00;;;;;;5108078;28;20055;-65
2022/01/19 08:42:24;;;;;;;27.73;15.10;;;0.80;24.60;;;;;;5105987;27;20082;-65
2022/01/19 08:44:53;;;;;;;33.47;18.52;;;0.90;24.10;;;;;;5084420;28;20044;-65
2022/01/19 08:47:23;;;;;;;28.52;15.32;;;1.10;24.00;;;;;;5103223;28;20545;-65
2022/01/19 08:49:54;;;;;;;34.15;15.70;;;1.10;22.70;;;;;;5106266;28;20047;-66
2022/01/19 08:52:22;;;;;;;25.58;15.00;;;1.20;22.40;;;;;;5092045;28;20423;-64
2022/01/19 08:54:50;;;;;;;26.95;15.73;;;1.20;21.40;;;;;;5102799;28;20081;-64
2022/01/19 08:57:19;;;;;;;24.90;14.55;;;1.30;20.70;;;;;;5102320;28;20128;-65
2022/01/19 08:59:47;;;;;;;31.40;15.55;;;1.40;20.70;;;;;;5106145;28;20187;-65
2022/01/19 09:02:15;;;;;;;24.70;14.63;;;1.50;19.60;;;;;;5107956;28;20051;-65
2022/01/19 09:04:45;;;;;;;22.45;13.50;;;1.60;18.80;;;;;;5100714;28;20039;-65
2022/01/19 09:07:14;;;;;;;23.98;14.23;;;1.60;18.10;;;;;;5103186;27;20051;-65
2022/01/19 09:09:42;;;;;;;22.67;13.82;;;1.60;17.70;;;;;;5106198;28;20043;-65
2022/01/19 09:12:11;;;;;;;23.40;14.25;;;1.80;17.40;;;;;;5103685;28;20072;-65
2022/01/19 09:14:39;;;;;;;28.30;14.52;;;1.80;16.80;;;;;;5101856;27;20396;-65
2022/01/19 09:17:08;;;;;;;26.52;14.27;;;1.90;16.10;;;;;;5103514;28;20515;-65
2022/01/19 09:19:39;;;;;;;24.92;14.02;;;1.90;15.40;;;;;;5100450;28;20036;-65
2022/01/19 09:22:09;;;;;;;25.52;14.30;;;1.90;14.20;;;;;;5103212;27;20098;-65
2022/01/19 09:24:39;;;;;;;23.65;14.02;;;2.00;14.20;;;;;;5100771;28;20109;-65
2022/01/19 09:27:09;;;;;;;22.23;12.73;;;2.10;13.90;;;;;;5100242;28;20124;-65
2022/01/19 09:29:40;;;;;;;24.83;14.18;;;2.20;13.50;;;;;;5105161;27;20075;-65
2022/01/19 09:32:10;;;;;;;20.20;13.18;;;2.30;13.40;;;;;;5107434;28;20061;-65
2022/01/19 09:34:39;;;;;;;22.33;13.45;;;2.40;13.10;;;;;;5101981;28;20502;-65
2022/01/19 09:37:09;;;;;;;24.10;13.77;;;2.50;12.60;;;;;;5102092;28;20044;-65
2022/01/19 09:39:37;;;;;;;24.05;12.88;;;2.50;11.20;;;;;;5104426;28;20048;-65
2022/01/19 09:42:07;;;;;;;19.95;12.23;;;2.60;10.40;;;;;;5105931;28;20067;-65
2022/01/19 09:44:35;;;;;;;24.23;12.60;;;2.60;10.40;;;;;;5103876;28;20044;-66
2022/01/19 09:47:03;;;;;;;24.00;13.98;;;2.70;9.60;;;;;;5099413;28;20078;-65
2022/01/19 09:49:31;;;;;;;22.05;12.85;;;2.70;9.50;;;;;;5100185;27;20067;-65
2022/01/19 09:52:00;;;;;;;26.48;14.57;;;2.80;8.80;;;;;;5102665;28;20501;-65
2022/01/19 09:54:31;;;;;;;21.17;12.55;;;2.80;8.90;;;;;;5101616;28;20146;-65
2022/01/19 09:56:59;;;;;;;28.83;12.60;;;3.00;8.80;;;;;;5101571;28;20123;-66
2022/01/19 09:59:32;;;;;;;20.38;12.70;;;3.00;7.70;;;;;;5103644;28;20055;-66
2022/01/19 10:02:04;;;;;;;25.02;13.07;;;3.10;7.80;;;;;;5106102;28;20043;-65
2022/01/19 10:04:34;;;;;;;19.25;12.20;;;3.10;7.60;;;;;;5101915;28;20039;-63
2022/01/19 10:07:14;;;;;;;20.10;11.63;;;3.10;7.10;;;;;;5102597;27;20051;-64
2022/01/19 10:09:53;;;;;;;19.55;12.27;;;3.20;6.20;;;;;;5102541;28;20105;-65
2022/01/19 10:18:13;;;;;;;21.58;12.15;;;3.50;5.60;;;;;;5106437;28;20079;-65
2022/01/19 10:20:41;;;;;;;23.40;12.02;;;3.50;5.10;;;;;;5103976;28;20490;-65
2022/01/19 10:23:33;;;;;;;38.35;20.60;;;3.60;5.00;;;;;;5104987;28;20043;-65
2022/01/19 10:26:03;;;;;;;21.27;11.75;;;3.70;4.90;;;;;;5101609;28;20101;-66
2022/01/19 10:28:31;;;;;;;20.05;11.90;;;3.70;4.30;;;;;;5084670;28;20538;-66
2022/01/19 10:31:01;;;;;;;16.35;10.73;;;3.60;3.70;;;;;;5103416;28;20067;-65
2022/01/19 10:33:29;;;;;;;21.45;11.32;;;3.70;3.20;;;;;;5105076;28;20036;-65
2022/01/19 10:35:59;;;;;;;20.35;10.00;;;3.70;2.50;;;;;;5099851;28;20056;-66
2022/01/19 10:38:29;;;;;;;18.10;10.05;;;3.60;2.40;;;;;;5102549;28;20075;-66
2022/01/19 10:41:09;;;;;;;16.90;9.15;;;3.70;2.10;;;;;;5106073;28;20040;-63
2022/01/19 10:43:41;;;;;;;17.02;10.13;;;3.90;1.10;;;;;;5100293;28;20047;-64
2022/01/19 10:46:27;;;;;;;19.48;9.77;;;3.70;2.10;;;;;;5101541;28;20047;-66
2022/01/19 10:49:01;;;;;;;18.38;11.00;;;3.80;1.60;;;;;;5105510;28;20039;-65
2022/01/19 10:51:39;;;;;;;19.95;11.05;;;3.80;1.40;;;;;;5110001;27;20745;-66
2022/01/19 10:54:13;;;;;;;15.30;9.52;;;3.80;1.10;;;;;;5107635;27;20143;-65
2022/01/19 10:56:44;;;;;;;15.98;9.95;;;3.80;1.00;;;;;;5104170;27;20145;-67
2022/01/19 10:59:14;;;;;;;15.75;9.70;;;4.00;1.00;;;;;;5110055;28;20117;-65
2022/01/19 11:01:45;;;;;;;20.98;11.82;;;4.10;1.00;;;;;;5107914;27;20040;-66
2022/01/19 11:04:35;;;;;;;20.30;11.20;;;4.00;1.00;;;;;;5108135;28;20048;-65
2022/01/19 11:07:07;;;;;;;16.08;10.02;;;4.10;1.00;;;;;;5100283;28;20479;-64
2022/01/19 11:09:44;;;;;;;16.38;9.95;;;4.00;1.00;;;;;;5106503;28;20104;-65
2022/01/19 11:12:19;;;;;;;17.02;10.23;;;3.90;1.00;;;;;;5104432;28;20063;-65
2022/01/19 11:14:47;;;;;;;17.15;9.18;;;3.80;1.00;;;;;;5107056;27;20156;-65
2022/01/19 11:17:36;;;;;;;16.67;9.15;;;3.90;1.00;;;;;;5104318;28;20047;-64
2022/01/19 11:20:06;;;;;;;21.38;10.05;;;4.00;1.00;;;;;;5107310;28;20047;-65
2022/01/19 11:22:59;;;;;;;18.00;9.40;;;4.20;1.00;;;;;;5114277;27;20067;-64
2022/01/19 11:25:46;;;;;;;16.25;9.18;;;4.00;1.00;;;;;;5098428;28;21569;-64
2022/01/19 11:28:27;;;;;;;16.58;9.73;;;4.10;1.00;;;;;;5106068;28;20050;-64
2022/01/19 11:30:56;;;;;;;21.67;9.82;;;4.10;1.00;;;;;;5107341;28;20457;-64
2022/01/19 11:33:27;;;;;;;17.77;9.85;;;4.10;1.00;;;;;;5109596;27;20056;-64
2022/01/19 11:35:57;;;;;;;20.25;9.70;;;4.00;1.00;;;;;;5103170;28;20051;-65
2022/01/19 11:38:34;;;;;;;16.73;10.07;;;4.00;1.00;;;;;;5108853;28;20134;-65
2022/01/19 11:41:04;;;;;;;18.45;10.55;;;4.20;1.00;;;;;;5108164;28;20496;-64
2022/01/19 11:43:35;;;;;;;17.88;10.50;;;4.20;1.00;;;;;;5106150;28;20097;-64
2022/01/19 11:46:05;;;;;;;16.48;9.98;;;4.10;1.00;;;;;;5098527;28;20039;-65
2022/01/19 11:48:35;;;;;;;19.23;10.52;;;4.10;1.10;;;;;;5105225;28;20056;-64
2022/01/19 11:51:26;;;;;;;15.68;9.77;;;4.10;1.00;;;;;;5103914;28;20046;-64
2022/01/19 11:54:06;;;;;;;16.52;9.30;;;4.10;1.00;;;;;;5102580;28;20133;-65
2022/01/19 11:56:54;;;;;;;14.75;8.70;;;4.10;1.00;;;;;;5104486;27;20139;-64
2022/01/19 11:59:25;;;;;;;16.05;9.93;;;4.00;1.00;;;;;;5100299;27;20114;-65
2022/01/19 12:01:53;;;;;;;16.50;8.80;;;4.00;1.00;;;;;;5103278;28;20044;-65
2022/01/19 12:04:23;;;;;;;17.23;9.65;;;4.20;1.00;;;;;;5097216;28;20058;-65
2022/01/19 12:06:51;;;;;;;18.48;10.50;;;4.20;1.00;;;;;;5099211;27;20040;-64
2022/01/19 12:09:20;;;;;;;15.60;9.45;;;4.20;1.00;;;;;;5100094;28;20058;-64
2022/01/19 12:11:52;;;;;;;15.68;9.65;;;4.20;1.00;;;;;;5102826;28;20131;-64
2022/01/19 12:14:26;;;;;;;15.25;9.68;;;4.30;1.00;;;;;;5100224;28;20056;-64
2022/01/19 12:17:01;;;;;;;16.92;9.15;;;4.40;1.00;;;;;;5096946;28;20109;-65
2022/01/19 12:19:31;;;;;;;15.13;9.32;;;4.60;1.00;;;;;;5100404;28;20513;-64
2022/01/19 12:22:06;;;;;;;15.40;9.68;;;4.60;1.00;;;;;;5103007;27;20056;-65
2022/01/19 12:24:38;;;;;;;15.35;8.82;;;4.70;1.00;;;;;;5099335;28;20047;-65
2022/01/19 12:27:10;;;;;;;15.57;8.45;;;4.50;1.00;;;;;;5100661;27;21253;-64
2022/01/19 12:29:50;;;;;;;17.27;9.35;;;4.70;1.00;;;;;;5106140;28;20097;-64
2022/01/19 12:32:37;;;;;;;15.30;9.02;;;4.70;1.00;;;;;;5100379;28;20059;-64
2022/01/19 12:35:15;;;;;;;14.20;8.80;;;4.90;1.00;;;;;;5097205;27;20131;-65
2022/01/19 12:37:45;;;;;;;14.68;8.88;;;5.10;1.00;;;;;;5099291;28;20043;-66
2022/01/19 12:40:41;;;;;;;17.75;9.30;;;5.00;1.00;;;;;;5097050;28;20479;-65
2022/01/19 12:43:13;;;;;;;16.38;8.88;;;5.00;1.00;;;;;;5105810;28;20518;-65
2022/01/19 12:45:49;;;;;;;15.75;8.70;;;5.10;1.00;;;;;;5101814;28;20102;-65
2022/01/19 12:48:45;;;;;;;15.45;9.15;;;5.10;1.00;;;;;;5106867;27;20040;-65
2022/01/19 12:51:35;;;;;;;13.38;8.73;;;5.00;1.00;;;;;;5105814;28;20058;-65
2022/01/19 12:54:04;;;;;;;14.23;8.90;;;5.20;1.00;;;;;;5104287;27;20036;-65
2022/01/19 12:56:55;;;;;;;14.38;8.10;;;5.30;1.00;;;;;;5098444;27;20046;-65
2022/01/19 12:59:23;;;;;;;24.45;12.43;;;5.40;1.00;;;;;;5099382;28;20495;-65
2022/01/19 13:01:51;;;;;;;13.27;8.50;;;5.50;1.00;;;;;;5101870;27;20123;-66
2022/01/19 13:04:29;;;;;;;10.60;6.95;;;5.50;1.00;;;;;;5100107;28;20130;-64
2022/01/19 13:07:16;;;;;;;11.23;6.93;;;5.50;1.00;;;;;;5096670;28;20109;-64
2022/01/19 13:10:06;;;;;;;11.48;7.38;;;5.60;1.00;;;;;;5099962;27;20044;-65
2022/01/19 13:12:40;;;;;;;10.93;6.25;;;5.70;1.00;;;;;;5099253;28;20048;-65
2022/01/19 13:15:08;;;;;;;9.80;6.78;;;5.70;1.00;;;;;;5097843;28;20070;-65
2022/01/19 13:17:43;;;;;;;13.32;6.55;;;5.80;1.00;;;;;;5094200;28;20044;-65
2022/01/19 13:20:15;;;;;;;14.18;7.00;;;5.90;1.00;;;;;;5096667;28;20056;-65
2022/01/19 13:22:45;;;;;;;10.20;6.57;;;6.10;1.00;;;;;;5100436;27;20063;-66
2022/01/19 13:25:19;;;;;;;10.20;6.05;;;6.20;1.00;;;;;;5097268;28;20074;-65
2022/01/19 13:27:47;;;;;;;9.75;6.10;;;6.20;1.00;;;;;;5097980;27;20047;-64
2022/01/19 13:30:18;;;;;;;12.15;6.47;;;6.20;1.00;;;;;;5097623;28;20052;-65
2022/01/19 13:32:46;;;;;;;9.80;6.25;;;6.20;1.00;;;;;;5099579;27;20067;-65
2022/01/19 13:35:16;;;;;;;9.88;5.53;;;6.20;1.00;;;;;;5100381;27;20039;-66
2022/01/19 13:37:46;;;;;;;10.50;5.30;;;6.10;1.00;;;;;;5103858;28;20210;-65
2022/01/19 13:40:16;;;;;;;10.23;5.18;;;6.10;1.00;;;;;;5103951;28;20051;-66
2022/01/19 13:42:47;;;;;;;9.57;5.45;;;6.20;1.00;;;;;;5104557;28;20525;-65
2022/01/19 13:45:28;;;;;;;12.95;4.60;;;6.20;1.00;;;;;;5099891;28;20082;-66
2022/01/19 13:48:04;;;;;;;10.45;5.63;;;6.30;1.00;;;;;;5104343;28;20514;-66
2022/01/19 13:50:35;;;;;;;6.88;4.53;;;6.40;1.00;;;;;;5103389;27;20051;-66
2022/01/19 13:53:03;;;;;;;8.38;4.95;;;6.50;1.00;;;;;;5107506;28;20091;-66
2022/01/19 13:55:32;;;;;;;6.40;4.30;;;6.40;1.00;;;;;;5100938;28;20040;-66
2022/01/19 13:58:09;;;;;;;7.68;4.85;;;6.30;1.00;;;;;;5104955;27;20044;-65
2022/01/19 14:00:38;;;;;;;11.05;4.88;;;6.30;1.00;;;;;;5104642;28;20052;-65
2022/01/19 14:03:07;;;;;;;8.90;5.20;;;6.30;1.00;;;;;;5104185;28;20051;-66
2022/01/19 14:05:39;;;;;;;7.78;4.60;;;6.20;1.00;;;;;;5103060;27;20061;-66
2022/01/19 14:08:08;;;;;;;11.07;5.18;;;6.20;1.00;;;;;;5105502;28;20047;-66
2022/01/19 14:10:45;;;;;;;8.63;4.95;;;6.20;1.00;;;;;;5104334;28;20047;-66
2022/01/19 14:13:29;;;;;;;8.23;5.25;;;6.20;1.00;;;;;;5102541;28;20055;-66
2022/01/19 14:16:18;;;;;;;8.43;4.78;;;6.20;1.00;;;;;;5101382;28;20051;-66